createdAt,value
2019-03-28T00:02:18.190Z,26.07
2019-03-28T00:04:48.406Z,18.73
2019-03-28T00:07:18.406Z,23.87
2019-03-28T00:09:48.391Z,22.50
2019-03-28T00:12:18.501Z,21.73
2019-03-28T00:14:48.525Z,22.97
2019-03-28T00:17:18.579Z,21.80
2019-03-28T00:19:48.554Z,25.10
2019-03-28T00:22:30.292Z,21.37
2019-03-28T00:25:04.519Z,28.67
2019-03-28T00:27:34.494Z,25.23
2019-03-28T00:30:05.182Z,28.07
2019-03-28T00:32:35.179Z,26.27
2019-03-28T00:35:05.268Z,25.27
2019-03-28T00:37:36.229Z,24.27
2019-03-28T00:40:06.747Z,21.00
2019-03-28T00:42:36.770Z,23.60
2019-03-28T00:45:08.170Z,22.90
2019-03-28T00:47:38.143Z,27.47
2019-03-28T00:50:08.940Z,23.10
2019-03-28T00:52:38.952Z,20.80
2019-03-28T00:55:09.167Z,22.83
2019-03-28T00:57:39.185Z,24.10
2019-03-28T01:00:10.666Z,25.50
2019-03-28T01:02:40.721Z,21.87
2019-03-28T01:05:11.011Z,20.27
2019-03-28T01:07:41.055Z,23.60
2019-03-28T01:10:11.507Z,26.27
2019-03-28T01:12:41.529Z,25.67
2019-03-28T01:15:11.910Z,25.10
2019-03-28T01:17:41.981Z,27.17
2019-03-28T01:20:13.264Z,24.53
2019-03-28T01:22:43.278Z,22.20
2019-03-28T01:25:13.366Z,22.03
2019-03-28T01:27:43.439Z,23.13
2019-03-28T01:30:13.654Z,24.00
2019-03-28T01:32:43.669Z,24.70
2019-03-28T01:35:13.666Z,29.10
2019-03-28T01:37:43.677Z,22.93
2019-03-28T01:40:13.656Z,26.40
2019-03-28T01:42:43.678Z,23.60
2019-03-28T01:45:13.666Z,23.57
2019-03-28T01:47:43.669Z,22.50
2019-03-28T01:50:15.448Z,22.10
2019-03-28T01:52:45.544Z,19.43
2019-03-28T01:55:15.561Z,22.97
2019-03-28T01:57:45.595Z,25.53
2019-03-28T02:00:15.672Z,20.77
2019-03-28T02:02:45.687Z,22.53
2019-03-28T02:05:15.877Z,27.13
2019-03-28T02:07:45.882Z,21.10
2019-03-28T02:10:16.101Z,25.47
2019-03-28T02:12:46.106Z,22.50
2019-03-28T02:15:16.312Z,24.37
2019-03-28T02:17:46.332Z,20.47
2019-03-28T02:20:16.905Z,22.30
2019-03-28T02:22:46.958Z,23.80
2019-03-28T02:25:17.311Z,23.40
2019-03-28T02:27:47.450Z,24.57
2019-03-28T02:30:20.386Z,21.93
2019-03-28T02:32:50.439Z,24.70
2019-03-28T02:35:20.471Z,23.33
2019-03-28T02:37:50.468Z,20.80
2019-03-28T02:40:20.441Z,25.47
2019-03-28T02:42:52.112Z,26.17
2019-03-28T02:45:22.077Z,19.33
2019-03-28T02:47:53.891Z,21.77
2019-03-28T02:50:23.894Z,23.63
2019-03-28T02:52:53.916Z,22.80
2019-03-28T02:55:24.042Z,26.33
2019-03-28T02:57:54.163Z,22.67
2019-03-28T03:00:24.141Z,22.23
2019-03-28T03:02:54.221Z,21.93
2019-03-28T03:05:24.222Z,23.10
2019-03-28T03:07:54.260Z,22.63
2019-03-28T03:10:24.246Z,22.10
2019-03-28T03:12:54.258Z,23.57
2019-03-28T03:15:24.258Z,20.33
2019-03-28T03:17:54.266Z,23.83
2019-03-28T03:20:24.266Z,21.47
2019-03-28T03:22:54.602Z,23.53
2019-03-28T03:25:24.823Z,21.10
2019-03-28T03:27:58.658Z,22.20
2019-03-28T03:30:26.514Z,21.00
2019-03-28T03:32:56.534Z,20.57
2019-03-28T03:35:26.552Z,22.63
2019-03-28T03:37:56.617Z,22.33
2019-03-28T03:40:26.644Z,21.57
2019-03-28T03:42:56.898Z,20.30
2019-03-28T03:45:27.130Z,22.20
2019-03-28T03:47:57.129Z,27.00
2019-03-28T03:50:28.717Z,22.47
2019-03-28T03:52:58.799Z,22.60
2019-03-28T03:55:28.816Z,20.30
2019-03-28T03:58:14.555Z,23.70
2019-03-28T04:00:34.826Z,24.43
2019-03-28T04:03:04.968Z,21.07
2019-03-28T04:05:34.985Z,21.93
2019-03-28T04:08:04.985Z,19.17
2019-03-28T04:10:35.002Z,20.57
2019-03-28T04:13:05.017Z,22.40
2019-03-28T04:15:35.066Z,18.77
2019-03-28T04:18:05.074Z,20.23
2019-03-28T04:20:35.121Z,20.37
2019-03-28T04:23:05.126Z,20.47
2019-03-28T04:25:35.138Z,19.67
2019-03-28T04:28:05.107Z,20.90
2019-03-28T04:30:35.142Z,18.70
2019-03-28T04:33:05.139Z,23.97
2019-03-28T04:35:35.148Z,19.50
2019-03-28T04:38:05.140Z,21.53
2019-03-28T04:40:35.146Z,22.07
2019-03-28T04:43:05.138Z,23.47
2019-03-28T04:45:35.164Z,18.40
2019-03-28T04:48:05.174Z,18.23
2019-03-28T04:50:35.186Z,20.17
2019-03-28T04:53:05.162Z,21.80
2019-03-28T04:55:35.198Z,26.03
2019-03-28T04:58:05.194Z,23.77
2019-03-28T05:00:35.216Z,20.27
2019-03-28T05:03:05.306Z,21.60
2019-03-28T05:05:35.328Z,22.03
2019-03-28T05:08:05.331Z,21.37
2019-03-28T05:10:35.348Z,22.10
2019-03-28T05:13:05.360Z,22.07
2019-03-28T05:15:35.341Z,22.17
2019-03-28T05:18:05.338Z,21.23
2019-03-28T05:20:35.332Z,22.90
2019-03-28T05:23:05.492Z,25.10
2019-03-28T05:25:35.584Z,23.43
2019-03-28T05:28:05.558Z,21.50
2019-03-28T05:30:35.619Z,23.17
2019-03-28T05:33:05.615Z,24.50
2019-03-28T05:35:35.627Z,22.83
2019-03-28T05:38:05.609Z,24.93
2019-03-28T05:40:36.469Z,25.67
2019-03-28T05:43:06.711Z,25.93
2019-03-28T05:45:36.719Z,25.23
2019-03-28T05:48:06.687Z,25.10
2019-03-28T05:50:36.688Z,27.87
2019-03-28T05:53:06.683Z,25.37
2019-03-28T05:55:37.101Z,21.43
2019-03-28T05:58:09.508Z,27.17
2019-03-28T06:00:39.131Z,23.43
2019-03-28T06:03:10.244Z,23.73
2019-03-28T06:05:40.264Z,29.33
2019-03-28T06:08:10.311Z,26.17
2019-03-28T06:10:40.317Z,28.27
2019-03-28T06:13:10.293Z,23.47
2019-03-28T06:15:41.220Z,30.10
2019-03-28T06:18:11.230Z,23.80
2019-03-28T06:20:41.257Z,27.00
2019-03-28T06:23:11.306Z,26.27
2019-03-28T06:25:41.308Z,25.70
2019-03-28T06:28:11.311Z,25.73
2019-03-28T06:30:41.299Z,30.53
2019-03-28T06:33:11.274Z,27.37
2019-03-28T06:35:41.325Z,28.77
2019-03-28T06:38:11.363Z,26.60
2019-03-28T06:40:41.354Z,28.60
2019-03-28T06:43:11.343Z,34.13
2019-03-28T06:45:41.353Z,29.40
2019-03-28T06:48:11.322Z,36.90
2019-03-28T06:50:41.336Z,31.47
2019-03-28T06:53:11.339Z,27.33
2019-03-28T06:55:41.337Z,32.37
2019-03-28T06:58:11.329Z,31.03
2019-03-28T07:00:41.321Z,30.07
2019-03-28T07:03:11.306Z,29.70
2019-03-28T07:05:41.339Z,28.63
2019-03-28T07:08:11.293Z,30.17
2019-03-28T07:10:41.273Z,34.93
2019-03-28T07:13:11.347Z,33.53
2019-03-28T07:15:41.318Z,34.00
2019-03-28T07:18:11.300Z,37.87
2019-03-28T07:20:41.301Z,34.43
2019-03-28T07:23:11.344Z,34.77
2019-03-28T07:25:41.422Z,32.63
2019-03-28T07:28:11.418Z,32.53
2019-03-28T07:30:41.390Z,31.80
2019-03-28T07:33:11.393Z,36.80
2019-03-28T07:35:41.385Z,39.03
2019-03-28T07:38:11.407Z,34.43
2019-03-28T07:40:41.399Z,33.23
2019-03-28T07:43:11.426Z,34.33
2019-03-28T07:45:41.452Z,33.33
2019-03-28T07:48:11.481Z,33.20
2019-03-28T07:50:42.701Z,29.57
2019-03-28T07:53:12.895Z,31.57
2019-03-28T07:55:42.880Z,31.33
2019-03-28T07:58:12.903Z,33.07
2019-03-28T08:00:42.898Z,28.17
2019-03-28T08:03:12.935Z,29.93
2019-03-28T08:05:42.912Z,29.17
2019-03-28T08:08:12.933Z,35.13
2019-03-28T08:10:42.917Z,28.70
2019-03-28T08:13:12.931Z,27.47
2019-03-28T08:15:42.958Z,28.63
2019-03-28T08:18:12.977Z,28.57
2019-03-28T08:20:42.971Z,20.37
2019-03-28T08:23:13.049Z,20.30
2019-03-28T08:25:43.044Z,20.53
2019-03-28T08:28:13.106Z,15.13
2019-03-28T08:30:45.391Z,21.00
2019-03-28T08:33:14.867Z,17.03
2019-03-28T08:35:44.876Z,22.30
2019-03-28T08:38:15.277Z,19.47
2019-03-28T08:40:45.463Z,17.47
2019-03-28T08:43:15.494Z,19.37
2019-03-28T08:45:45.460Z,16.97
2019-03-28T08:48:15.703Z,18.07
2019-03-28T08:50:45.811Z,20.73
2019-03-28T08:53:15.853Z,17.87
2019-03-28T08:55:45.884Z,20.87
2019-03-28T08:58:15.841Z,17.00
2019-03-28T09:00:51.956Z,18.50
2019-03-28T09:03:17.500Z,19.63
2019-03-28T09:05:47.502Z,23.80
2019-03-28T09:08:17.490Z,25.17
2019-03-28T09:10:47.528Z,20.37
2019-03-28T09:13:29.857Z,20.07
2019-03-28T09:15:59.965Z,19.07
2019-03-28T09:18:30.029Z,18.83
2019-03-28T09:21:00.017Z,17.53
2019-03-28T09:23:30.027Z,17.73
2019-03-28T09:26:00.047Z,18.23
2019-03-28T09:28:30.084Z,16.83
2019-03-28T09:31:00.051Z,18.33
2019-03-28T09:33:30.340Z,15.07
2019-03-28T09:36:00.368Z,14.90
2019-03-28T09:38:30.339Z,16.00
2019-03-28T09:41:00.369Z,15.67
2019-03-28T09:43:30.386Z,18.17
2019-03-28T09:46:01.408Z,14.70
2019-03-28T09:48:31.973Z,15.30
2019-03-28T09:51:01.989Z,15.97
2019-03-28T09:53:31.973Z,17.03
2019-03-28T09:56:02.100Z,14.60
2019-03-28T09:58:32.066Z,16.90
2019-03-28T10:01:03.430Z,14.60
2019-03-28T10:03:33.609Z,20.03
2019-03-28T10:06:03.627Z,17.60
2019-03-28T10:08:33.626Z,16.17
2019-03-28T10:11:03.848Z,16.13
2019-03-28T10:13:33.921Z,17.13
2019-03-28T10:16:03.993Z,18.80
2019-03-28T10:18:34.007Z,20.13
2019-03-28T10:21:04.006Z,15.13
2019-03-28T10:23:34.005Z,17.63
2019-03-28T10:26:04.224Z,14.70
2019-03-28T10:28:34.384Z,17.33
2019-03-28T10:31:15.855Z,18.20
2019-03-28T10:33:36.466Z,19.67
2019-03-28T10:36:06.531Z,17.07
2019-03-28T10:38:36.579Z,16.10
2019-03-28T10:41:06.603Z,21.57
2019-03-28T10:43:36.650Z,18.70
2019-03-28T10:46:06.710Z,19.10
2019-03-28T10:48:36.732Z,21.63
2019-03-28T10:51:06.784Z,15.67
2019-03-28T10:53:36.857Z,13.97
2019-03-28T10:56:20.472Z,18.10
2019-03-28T10:58:38.635Z,16.60
2019-03-28T11:01:08.669Z,15.50
2019-03-28T11:03:38.763Z,14.50
2019-03-28T11:06:08.792Z,19.07
2019-03-28T11:08:40.087Z,16.40
2019-03-28T11:11:10.094Z,15.60
2019-03-28T11:13:40.141Z,19.67
2019-03-28T11:16:10.214Z,15.67
2019-03-28T11:18:40.237Z,17.20
2019-03-28T11:21:10.286Z,14.50
2019-03-28T11:23:40.290Z,14.83
2019-03-28T11:26:10.391Z,14.83
2019-03-28T11:28:40.480Z,15.93
2019-03-28T11:31:10.505Z,21.20
2019-03-28T11:33:40.541Z,15.00
2019-03-28T11:36:10.588Z,17.30
2019-03-28T11:38:40.620Z,16.07
2019-03-28T11:41:10.666Z,14.30
2019-03-28T11:43:40.685Z,18.30
2019-03-28T11:46:11.357Z,17.33
2019-03-28T11:48:41.362Z,16.53
2019-03-28T11:51:11.413Z,21.77
2019-03-28T11:53:46.812Z,18.67
2019-03-28T11:56:16.930Z,15.53
2019-03-28T11:58:46.956Z,18.63
2019-03-28T12:01:17.032Z,16.10
2019-03-28T12:03:47.020Z,19.40
2019-03-28T12:06:17.071Z,17.80
2019-03-28T12:08:47.101Z,16.00
2019-03-28T12:11:17.132Z,19.40
2019-03-28T12:13:47.170Z,15.57
2019-03-28T12:16:17.337Z,17.53
2019-03-28T12:18:47.426Z,19.93
2019-03-28T12:21:18.469Z,14.60
2019-03-28T12:23:48.597Z,15.43
2019-03-28T12:26:18.679Z,15.43
2019-03-28T12:28:48.674Z,17.80
2019-03-28T12:31:18.753Z,15.63
2019-03-28T12:33:48.805Z,15.90
2019-03-28T12:36:19.041Z,16.60
2019-03-28T12:38:49.073Z,17.70
2019-03-28T12:41:19.111Z,18.13
2019-03-28T12:43:49.111Z,13.27
2019-03-28T12:46:19.145Z,18.30
2019-03-28T12:48:49.148Z,13.00
2019-03-28T12:51:22.119Z,17.70
2019-03-28T12:53:51.933Z,13.70
2019-03-28T12:56:22.005Z,13.70
2019-03-28T12:58:53.005Z,14.73
2019-03-28T13:01:23.080Z,12.77
2019-03-28T13:03:53.098Z,13.63
2019-03-28T13:06:23.121Z,12.37
2019-03-28T13:08:53.174Z,19.10
2019-03-28T13:11:23.206Z,11.70
2019-03-28T13:13:53.327Z,11.10
2019-03-28T13:16:23.380Z,10.70
2019-03-28T13:18:53.413Z,12.43
2019-03-28T13:21:23.591Z,15.33
2019-03-28T13:23:53.635Z,12.20
2019-03-28T13:26:23.648Z,15.00
2019-03-28T13:28:54.111Z,16.37
2019-03-28T13:31:24.658Z,10.83
2019-03-28T13:33:54.683Z,11.43
2019-03-28T13:36:24.742Z,17.53
2019-03-28T13:38:54.778Z,10.77
2019-03-28T13:41:25.970Z,12.63
2019-03-28T13:43:56.679Z,10.67
2019-03-28T13:46:26.745Z,9.80
2019-03-28T13:48:58.641Z,8.00
2019-03-28T13:51:28.616Z,9.90
2019-03-28T13:53:58.707Z,12.10
2019-03-28T13:56:28.773Z,8.43
2019-03-28T13:58:58.998Z,9.47
2019-03-28T14:01:28.998Z,8.97
2019-03-28T14:03:59.921Z,7.47
2019-03-28T14:06:30.596Z,8.47
2019-03-28T14:09:00.887Z,9.93
2019-03-28T14:11:30.895Z,10.47
2019-03-28T14:14:00.968Z,7.00
2019-03-28T14:16:30.998Z,7.40
2019-03-28T14:19:01.063Z,8.50
2019-03-28T14:21:31.065Z,11.03
2019-03-28T14:24:01.105Z,7.70
2019-03-28T14:26:31.188Z,6.40
2019-03-28T14:29:01.231Z,7.80
2019-03-28T14:31:31.372Z,7.07
2019-03-28T14:34:02.017Z,8.10
2019-03-28T14:36:32.708Z,8.03
2019-03-28T14:39:02.730Z,7.37
2019-03-28T14:41:32.776Z,7.90
2019-03-28T14:44:02.814Z,10.73
2019-03-28T14:46:32.871Z,7.77
2019-03-28T14:49:03.009Z,9.57
2019-03-28T14:51:33.146Z,9.47
2019-03-28T14:54:03.170Z,6.37
2019-03-28T14:56:34.116Z,8.10
2019-03-28T14:59:04.965Z,8.77
2019-03-28T15:01:34.977Z,6.90
2019-03-28T15:04:05.178Z,8.73
2019-03-28T15:06:35.205Z,10.60
2019-03-28T15:09:07.856Z,8.17
2019-03-28T15:11:37.894Z,6.63
2019-03-28T15:14:07.987Z,8.03
2019-03-28T15:16:38.076Z,8.07
2019-03-28T15:19:08.169Z,8.53
2019-03-28T15:21:38.190Z,7.13
2019-03-28T15:24:08.295Z,9.73
2019-03-28T15:26:38.477Z,8.70
2019-03-28T15:29:08.641Z,9.40
2019-03-28T15:31:38.810Z,10.90
2019-03-28T15:34:08.842Z,7.80
2019-03-28T15:36:41.873Z,6.90
2019-03-28T15:39:11.004Z,8.20
2019-03-28T15:41:45.360Z,7.80
2019-03-28T15:44:15.362Z,7.10
2019-03-28T15:46:45.403Z,8.70
2019-03-28T15:49:15.450Z,9.57
2019-03-28T15:51:45.516Z,11.13
2019-03-28T15:54:15.859Z,8.00
2019-03-28T15:56:46.121Z,10.33
2019-03-28T15:59:17.340Z,8.77
2019-03-28T16:01:47.383Z,13.23
2019-03-28T16:04:17.552Z,9.70
2019-03-28T16:06:48.676Z,9.63
2019-03-28T16:09:18.688Z,8.93
2019-03-28T16:12:01.665Z,11.93
2019-03-28T16:14:20.657Z,6.73
2019-03-28T16:16:50.665Z,8.60
2019-03-28T16:19:20.658Z,8.00
2019-03-28T16:21:50.736Z,9.53
2019-03-28T16:24:20.757Z,11.10
2019-03-28T16:26:50.822Z,7.87
2019-03-28T16:29:21.902Z,7.80
2019-03-28T16:31:51.942Z,12.03
2019-03-28T16:34:21.953Z,10.73
2019-03-28T16:36:52.060Z,10.60
2019-03-28T16:39:22.086Z,10.50
2019-03-28T16:41:52.110Z,11.30
2019-03-28T16:44:22.120Z,13.70
2019-03-28T16:46:52.148Z,10.90
2019-03-28T16:49:22.160Z,11.47
2019-03-28T16:51:54.126Z,9.83
2019-03-28T16:54:23.861Z,9.63
2019-03-28T16:56:53.943Z,9.43
2019-03-28T16:59:24.022Z,10.77
2019-03-28T17:01:54.130Z,13.07
2019-03-28T17:04:24.230Z,10.73
2019-03-28T17:06:54.376Z,9.97
2019-03-28T17:09:25.604Z,10.13
2019-03-28T17:11:55.689Z,9.80
2019-03-28T17:14:26.303Z,10.10
2019-03-28T17:16:56.451Z,10.23
2019-03-28T17:19:26.504Z,10.73
2019-03-28T17:21:56.539Z,9.60
2019-03-28T17:24:26.536Z,11.90
2019-03-28T17:26:56.605Z,9.90
2019-03-28T17:29:26.744Z,13.03
2019-03-28T17:31:56.786Z,9.07
2019-03-28T17:34:34.556Z,9.73
2019-03-28T17:36:58.489Z,8.60
2019-03-28T17:39:28.514Z,9.43
2019-03-28T17:41:58.563Z,7.73
2019-03-28T17:44:28.589Z,5.83
2019-03-28T17:47:03.080Z,10.13
2019-03-28T17:49:33.069Z,11.47
2019-03-28T17:52:03.106Z,11.30
2019-03-28T17:54:33.103Z,10.60
2019-03-28T17:57:03.232Z,8.20
2019-03-28T17:59:33.237Z,7.73
2019-03-28T18:02:03.282Z,12.47
2019-03-28T18:04:33.273Z,6.93
2019-03-28T18:07:03.319Z,15.10
2019-03-28T18:09:33.315Z,5.60
2019-03-28T18:12:03.352Z,8.83
2019-03-28T18:14:33.437Z,11.23
2019-03-28T18:17:03.452Z,8.53
2019-03-28T18:19:33.505Z,5.63
2019-03-28T18:22:04.172Z,8.07
2019-03-28T18:24:34.342Z,5.83
2019-03-28T18:27:04.357Z,5.97
2019-03-28T18:29:35.962Z,5.30
2019-03-28T18:32:06.131Z,3.90
2019-03-28T18:34:36.171Z,9.10
2019-03-28T18:37:06.200Z,4.53
2019-03-28T18:39:36.248Z,6.37
2019-03-28T18:42:06.270Z,4.37
2019-03-28T18:44:36.371Z,6.23
2019-03-28T18:47:06.379Z,3.60
2019-03-28T18:49:36.444Z,4.10
2019-03-28T18:52:07.520Z,7.23
2019-03-28T18:54:37.776Z,3.97
2019-03-28T18:57:08.368Z,3.63
2019-03-28T18:59:38.392Z,8.73
2019-03-28T19:02:08.393Z,10.47
2019-03-28T19:04:56.991Z,4.97
2019-03-28T19:07:27.777Z,5.53
2019-03-28T19:09:57.802Z,6.13
2019-03-28T19:12:27.934Z,3.90
2019-03-28T19:14:58.006Z,4.90
2019-03-28T19:17:28.003Z,5.83
2019-03-28T19:19:59.560Z,3.77
2019-03-28T19:22:29.856Z,5.73
2019-03-28T19:24:59.982Z,3.53
2019-03-28T19:27:30.330Z,5.17
2019-03-28T19:30:00.530Z,4.37
2019-03-28T19:32:30.546Z,5.30
2019-03-28T19:35:02.997Z,5.23
2019-03-28T19:37:32.729Z,5.13
2019-03-28T19:40:03.023Z,5.93
2019-03-28T19:42:36.304Z,5.63
2019-03-28T19:45:07.243Z,8.77
2019-03-28T19:47:37.376Z,5.50
2019-03-28T19:50:09.155Z,5.03
2019-03-28T19:52:39.161Z,5.90
2019-03-28T19:55:11.187Z,6.43
2019-03-28T19:57:41.244Z,6.00
2019-03-28T20:00:11.502Z,5.57
2019-03-28T20:02:41.501Z,5.00
2019-03-28T20:05:12.835Z,5.50
2019-03-28T20:07:45.714Z,4.83
2019-03-28T20:10:16.663Z,6.87
2019-03-28T20:12:46.615Z,5.00
2019-03-28T20:15:16.642Z,5.80
2019-03-28T20:17:48.036Z,4.93
2019-03-28T20:20:18.420Z,6.57
2019-03-28T20:22:48.404Z,7.27
2019-03-28T20:25:18.471Z,6.80
2019-03-28T20:27:49.727Z,5.87
2019-03-28T20:30:20.428Z,7.13
2019-03-28T20:32:50.421Z,7.03
2019-03-28T20:35:21.904Z,5.80
2019-03-28T20:37:51.916Z,6.60
2019-03-28T20:40:22.091Z,6.20
2019-03-28T20:42:52.105Z,10.77
2019-03-28T20:45:22.358Z,11.43
2019-03-28T20:47:52.423Z,6.73
2019-03-28T20:50:24.591Z,7.00
2019-03-28T20:52:54.686Z,7.63
2019-03-28T20:55:25.547Z,6.40
2019-03-28T20:57:56.898Z,6.80
2019-03-28T21:00:46.822Z,6.23
2019-03-28T21:03:17.272Z,7.50
2019-03-28T21:05:47.621Z,7.77
2019-03-28T21:08:19.214Z,11.20
2019-03-28T21:10:49.363Z,7.83
2019-03-28T21:13:19.346Z,7.87
2019-03-28T21:15:49.384Z,11.17
2019-03-28T21:18:19.425Z,7.37
2019-03-28T21:20:49.452Z,7.73
2019-03-28T21:23:19.480Z,9.03
2019-03-28T21:25:49.407Z,6.93
2019-03-28T21:28:19.377Z,6.90
2019-03-28T21:30:49.684Z,9.43
2019-03-28T21:33:19.907Z,8.77
2019-03-28T21:35:49.954Z,8.80
2019-03-28T21:38:19.927Z,7.00
2019-03-28T21:40:49.922Z,10.13
2019-03-28T21:43:19.938Z,8.00
2019-03-28T21:45:49.933Z,6.40
2019-03-28T21:48:19.912Z,6.30
2019-03-28T21:50:49.913Z,7.53
2019-03-28T21:53:20.171Z,8.23
2019-03-28T21:55:55.461Z,8.30
2019-03-28T21:58:21.826Z,8.07
2019-03-28T22:00:51.899Z,13.40
2019-03-28T22:03:21.867Z,8.63
2019-03-28T22:05:51.932Z,7.83
2019-03-28T22:08:21.879Z,7.33
2019-03-28T22:10:51.897Z,7.30
2019-03-28T22:13:22.048Z,9.53
2019-03-28T22:15:52.322Z,8.63
2019-03-28T22:18:22.416Z,9.10
2019-03-28T22:20:52.413Z,11.00
2019-03-28T22:23:22.456Z,8.30
2019-03-28T22:25:52.489Z,8.27
2019-03-28T22:28:22.484Z,8.50
2019-03-28T22:30:52.556Z,8.80
2019-03-28T22:33:22.521Z,7.73
2019-03-28T22:35:52.523Z,7.90
2019-03-28T22:38:22.578Z,8.07
2019-03-28T22:40:52.765Z,7.87
2019-03-28T22:43:22.758Z,8.87
2019-03-28T22:45:52.731Z,10.43
2019-03-28T22:48:22.749Z,9.33
2019-03-28T22:50:52.735Z,10.30
2019-03-28T22:53:22.710Z,8.00
2019-03-28T22:55:52.702Z,9.07
2019-03-28T22:58:22.719Z,7.50
2019-03-28T23:00:55.524Z,10.07
2019-03-28T23:03:25.516Z,7.80
2019-03-28T23:05:56.742Z,11.03
2019-03-28T23:08:26.910Z,12.23
2019-03-28T23:10:56.884Z,8.20
2019-03-28T23:13:26.962Z,8.90
2019-03-28T23:15:57.047Z,9.90
2019-03-28T23:18:27.034Z,9.83
2019-03-28T23:20:57.009Z,10.33
2019-03-28T23:23:26.993Z,8.73
2019-03-28T23:25:56.991Z,11.13
2019-03-28T23:28:27.128Z,8.93
2019-03-28T23:30:57.089Z,10.13
2019-03-28T23:33:27.084Z,8.97
2019-03-28T23:35:57.109Z,9.17
2019-03-28T23:38:27.166Z,11.43
2019-03-28T23:40:57.132Z,7.70
2019-03-28T23:43:27.136Z,10.07
2019-03-28T23:45:57.103Z,9.47
2019-03-28T23:48:27.086Z,8.73
2019-03-28T23:50:57.050Z,9.27
2019-03-28T23:53:27.255Z,8.87
2019-03-28T23:55:57.320Z,8.30
2019-03-28T23:58:27.303Z,10.10
